Time;durP1;ratioP1;P1;durP2;ratioP2;P2;SDS_P1;SDS_P2;PMS_P1;PMS_P2;Temp;Humidity;BMP_temperature;BMP_pressure;BME280_temperature;BME280_humidity;BME280_pressure;Samples;Min_cycle;Max_cycle;Signal;HPM_P1;HPM_P2
2022/07/19 00:00:15;;;;;;;4.20;2.47;;;;;;;21.91;56.63;101593.47;5065607;28;20043;-74
2022/07/19 00:02:41;;;;;;;4.30;1.90;;;;;;;21.87;56.80;101593.06;5067319;28;20025;-74
2022/07/19 00:05:07;;;;;;;2.95;2.30;;;;;;;21.84;56.97;101590.84;5044566;28;20028;-75
2022/07/19 00:07:34;;;;;;;3.65;2.47;;;;;;;21.82;56.57;101587.63;5046067;28;20086;-74
2022/07/19 00:09:59;;;;;;;2.88;1.95;;;;;;;21.82;56.88;101589.44;5059192;28;20051;-75
2022/07/19 00:12:25;;;;;;;6.78;2.42;;;;;;;21.77;57.10;101593.53;5059248;28;20408;-74
2022/07/19 00:14:50;;;;;;;7.68;2.35;;;;;;;21.54;57.81;101585.31;5066606;28;20071;-74
2022/07/19 00:17:16;;;;;;;5.60;2.95;;;;;;;21.42;58.10;101587.78;5061663;28;20028;-75
2022/07/19 00:19:41;;;;;;;5.57;2.05;;;;;;;21.33;58.23;101584.56;5030204;28;20035;-74
2022/07/19 00:22:06;;;;;;;6.82;2.63;;;;;;;21.27;58.48;101585.41;5061711;28;20540;-75
2022/07/19 00:24:32;;;;;;;3.83;2.05;;;;;;;21.29;58.54;101582.56;5065453;28;20456;-74
2022/07/19 00:26:58;;;;;;;6.70;2.33;;;;;;;21.30;58.48;101592.06;5064011;28;20064;-74
2022/07/19 00:29:23;;;;;;;3.67;2.30;;;;;;;21.30;58.84;101589.44;5048210;28;20035;-75
2022/07/19 00:31:49;;;;;;;5.15;2.20;;;;;;;21.29;58.52;101586.00;5060136;28;20062;-75
2022/07/19 00:34:15;;;;;;;6.90;2.33;;;;;;;21.33;58.72;101586.41;5061028;28;20032;-74
2022/07/19 00:36:41;;;;;;;4.30;1.98;;;;;;;21.27;58.85;101577.50;5066361;28;20036;-75
2022/07/19 00:39:06;;;;;;;6.32;2.13;;;;;;;21.09;59.38;101583.41;5054787;28;20025;-74
2022/07/19 00:41:32;;;;;;;6.90;2.38;;;;;;;20.96;59.77;101581.63;5045099;28;20774;-74
2022/07/19 00:43:58;;;;;;;5.75;2.28;;;;;;;20.91;59.88;101583.28;5058972;28;20399;-74
2022/07/19 00:46:23;;;;;;;4.70;2.15;;;;;;;20.93;60.03;101581.25;5058740;28;20421;-75
2022/07/19 00:48:50;;;;;;;8.73;2.20;;;;;;;20.95;60.09;101573.94;5059614;28;20032;-74
2022/07/19 00:51:17;;;;;;;5.40;2.42;;;;;;;20.95;59.93;101572.09;5042852;28;20029;-74
2022/07/19 00:53:44;;;;;;;8.48;2.40;;;;;;;20.80;60.67;101568.88;5041087;28;20074;-74
2022/07/19 00:56:12;;;;;;;10.90;3.28;;;;;;;20.56;61.48;101565.03;5059795;28;20048;-75
2022/07/19 00:58:39;;;;;;;5.30;2.17;;;;;;;20.40;61.54;101566.25;5056409;28;20040;-74
2022/07/19 01:01:06;;;;;;;5.40;2.25;;;;;;;20.36;61.85;101567.66;5063012;28;20070;-74
2022/07/19 01:03:40;;;;;;;4.38;2.38;;;;;;;20.39;61.76;101556.72;5057727;28;20036;-74
2022/07/19 01:06:06;;;;;;;5.10;2.60;;;;;;;20.42;61.91;101565.03;5062819;28;20047;-74
2022/07/19 01:08:32;;;;;;;6.32;2.67;;;;;;;20.47;61.61;101555.72;5064036;28;20036;-74
2022/07/19 01:10:58;;;;;;;5.72;2.40;;;;;;;20.40;61.78;101558.34;5041177;28;20044;-74
2022/07/19 01:13:23;;;;;;;6.93;2.53;;;;;;;20.22;62.39;101556.31;5056398;28;20056;-74
2022/07/19 01:15:49;;;;;;;5.20;2.40;;;;;;;20.10;62.76;101560.53;5067573;28;20032;-74
2022/07/19 01:18:15;;;;;;;4.43;2.28;;;;;;;20.03;63.02;101555.28;5058717;28;20564;-73
2022/07/19 01:20:40;;;;;;;8.15;2.40;;;;;;;20.00;63.27;101560.94;5063941;28;20032;-74
2022/07/19 01:23:06;;;;;;;9.65;2.38;;;;;;;19.93;63.74;101553.03;5065604;28;20040;-74
2022/07/19 01:25:35;;;;;;;11.70;2.75;;;;;;;19.89;63.81;101548.38;5066604;28;20036;-74
2022/07/19 01:28:04;;;;;;;8.60;2.80;;;;;;;19.86;64.01;101551.41;5057219;28;20097;-74
2022/07/19 01:30:30;;;;;;;7.22;3.17;;;;;;;19.76;64.48;101543.88;5048610;28;20493;-74
2022/07/19 01:32:56;;;;;;;9.65;2.40;;;;;;;19.68;64.79;101547.47;5064018;28;20041;-74
2022/07/19 01:35:22;;;;;;;6.18;3.22;;;;;;;19.63;65.24;101547.28;5069489;28;20634;-74
2022/07/19 01:37:48;;;;;;;4.40;2.75;;;;;;;19.54;65.79;101551.91;5047230;28;21306;-74
2022/07/19 01:40:16;;;;;;;6.22;2.40;;;;;;;19.44;66.43;101554.91;5067838;28;20032;-74
2022/07/19 01:42:42;;;;;;;8.60;3.30;;;;;;;19.37;66.93;101559.31;5066063;28;20032;-73
2022/07/19 01:45:08;;;;;;;8.75;3.40;;;;;;;19.40;66.95;101558.09;5030857;28;20066;-75
2022/07/19 01:47:35;;;;;;;4.60;2.88;;;;;;;19.44;66.82;101552.25;5045219;28;20128;-74
2022/07/19 01:50:01;;;;;;;5.60;2.53;;;;;;;19.53;66.56;101546.81;5066680;28;20040;-74
2022/07/19 01:52:26;;;;;;;8.60;2.92;;;;;;;19.60;66.46;101551.09;5067036;28;20029;-74
2022/07/19 01:54:51;;;;;;;3.53;2.08;;;;;;;19.67;65.88;101551.13;5067147;28;20452;-74
2022/07/19 01:57:17;;;;;;;9.45;3.05;;;;;;;19.70;65.81;101540.19;5047304;28;20639;-73
2022/07/19 01:59:42;;;;;;;3.88;2.22;;;;;;;19.67;66.10;101540.59;5065866;28;20020;-74
2022/07/19 02:02:08;;;;;;;6.93;2.90;;;;;;;19.62;66.35;101537.75;5048257;28;20090;-73
2022/07/19 02:04:33;;;;;;;7.60;2.33;;;;;;;19.62;66.37;101543.81;5049268;28;20093;-74
2022/07/19 02:06:59;;;;;;;5.45;2.55;;;;;;;19.63;66.10;101544.66;5067214;28;20025;-74
2022/07/19 02:09:24;;;;;;;7.20;2.72;;;;;;;19.66;65.88;101541.59;5065929;28;20024;-74
2022/07/19 02:11:50;;;;;;;4.30;2.30;;;;;;;19.70;65.58;101542.81;5063266;28;20406;-74
2022/07/19 02:14:15;;;;;;;4.38;1.95;;;;;;;19.72;65.21;101538.22;5060889;28;20036;-74
2022/07/19 02:16:42;;;;;;;7.03;2.97;;;;;;;19.74;65.25;101536.22;5070966;28;20034;-74
2022/07/19 02:19:08;;;;;;;6.43;2.25;;;;;;;19.73;65.18;101534.56;5045396;28;20024;-75
2022/07/19 02:21:34;;;;;;;4.95;2.38;;;;;;;19.73;65.13;101539.84;5047943;28;20763;-74
2022/07/19 02:24:00;;;;;;;9.02;2.55;;;;;;;19.70;65.27;101537.56;5061494;28;20602;-74
2022/07/19 02:26:25;;;;;;;6.13;2.78;;;;;;;19.64;65.57;101536.53;5075910;28;20052;-74
2022/07/19 02:28:51;;;;;;;7.72;2.75;;;;;;;19.55;65.98;101531.66;5063320;28;20419;-74
2022/07/19 02:31:17;;;;;;;4.97;3.17;;;;;;;19.42;66.53;101541.13;5067094;28;20020;-74
2022/07/19 02:33:43;;;;;;;7.38;3.28;;;;;;;19.28;67.14;101542.06;5062132;28;20040;-74
2022/07/19 02:36:08;;;;;;;7.53;2.67;;;;;;;19.23;67.35;101536.59;5064453;28;20039;-74
2022/07/19 02:38:34;;;;;;;5.93;2.78;;;;;;;19.21;67.32;101539.44;5063529;28;20470;-74
2022/07/19 02:40:59;;;;;;;10.43;2.60;;;;;;;19.21;67.17;101534.19;5063378;28;20036;-73
2022/07/19 02:43:25;;;;;;;6.47;2.70;;;;;;;19.23;66.83;101536.59;5064069;28;20691;-73
2022/07/19 02:45:50;;;;;;;7.60;2.83;;;;;;;19.16;67.26;101536.56;5066445;28;20166;-75
2022/07/19 02:48:16;;;;;;;7.00;3.20;;;;;;;19.04;67.92;101536.31;5065805;28;20074;-74
2022/07/19 02:50:42;;;;;;;6.28;3.10;;;;;;;18.95;68.35;101540.09;5067803;28;20029;-73
2022/07/19 02:53:07;;;;;;;4.40;2.65;;;;;;;18.88;68.47;101535.81;5063724;28;20120;-74
2022/07/19 02:55:33;;;;;;;5.18;2.90;;;;;;;18.84;68.89;101536.19;5064958;28;20628;-73
2022/07/19 02:57:58;;;;;;;7.70;3.38;;;;;;;18.79;68.96;101538.56;5043857;28;20040;-74
2022/07/19 03:00:24;;;;;;;4.75;2.67;;;;;;;18.77;69.12;101545.00;5068605;28;20044;-74
2022/07/19 03:02:49;;;;;;;7.32;3.10;;;;;;;18.69;69.52;101548.59;5044614;28;20039;-74
2022/07/19 03:05:15;;;;;;;6.28;2.92;;;;;;;18.60;69.86;101540.03;5063684;28;20023;-73
2022/07/19 03:07:40;;;;;;;4.32;3.05;;;;;;;18.59;69.97;101540.22;5062651;28;20458;-74
2022/07/19 03:10:06;;;;;;;5.43;3.03;;;;;;;18.64;69.67;101541.28;5065112;28;20037;-73
2022/07/19 03:12:31;;;;;;;7.63;3.47;;;;;;;18.71;69.21;101548.41;5065769;28;20028;-73
2022/07/19 03:14:57;;;;;;;8.20;3.53;;;;;;;18.76;68.74;101543.38;5065233;28;20112;-74
2022/07/19 03:17:23;;;;;;;8.02;3.10;;;;;;;18.77;68.52;101545.00;5061713;28;20505;-74
2022/07/19 03:19:48;;;;;;;10.52;2.58;;;;;;;18.77;68.52;101545.81;5062268;28;20420;-74
2022/07/19 03:22:14;;;;;;;6.78;2.92;;;;;;;18.76;68.55;101538.94;5057787;28;20040;-74
2022/07/19 03:24:39;;;;;;;5.60;3.10;;;;;;;18.78;68.29;101542.19;5064590;28;20028;-74
2022/07/19 03:27:05;;;;;;;9.07;3.25;;;;;;;18.81;68.02;101530.50;5062205;28;20035;-74
2022/07/19 03:29:30;;;;;;;7.43;3.55;;;;;;;18.82;67.97;101530.31;5046569;28;20051;-74
2022/07/19 03:31:57;;;;;;;7.40;3.08;;;;;;;18.79;68.20;101527.25;5064920;28;20378;-74
2022/07/19 03:34:23;;;;;;;9.63;2.83;;;;;;;18.78;68.27;101523.81;5042241;28;20070;-73
2022/07/19 03:36:48;;;;;;;6.97;3.50;;;;;;;18.77;68.25;101522.16;5066840;28;20393;-76
2022/07/19 03:39:14;;;;;;;6.53;3.30;;;;;;;18.78;68.32;101526.44;5065505;28;20048;-74
2022/07/19 03:41:39;;;;;;;9.52;3.28;;;;;;;18.80;68.04;101527.09;5068094;28;20531;-73
2022/07/19 03:44:04;;;;;;;4.90;3.50;;;;;;;18.79;68.02;101535.91;5063500;28;20045;-73
2022/07/19 03:46:30;;;;;;;8.98;3.40;;;;;;;18.75;67.96;101532.06;5060437;28;20029;-75
2022/07/19 03:48:56;;;;;;;6.90;3.28;;;;;;;18.72;67.68;101521.94;5046912;28;20404;-73
2022/07/19 03:51:22;;;;;;;9.55;3.58;;;;;;;18.74;66.96;101529.63;5061653;28;20078;-73
2022/07/19 03:53:48;;;;;;;6.43;2.95;;;;;;;18.74;66.95;101533.09;5065219;28;20119;-74
2022/07/19 03:56:14;;;;;;;7.97;3.20;;;;;;;18.74;66.90;101524.38;5063610;28;20508;-74
2022/07/19 03:58:40;;;;;;;14.15;3.42;;;;;;;18.79;66.28;101522.78;5066199;28;20032;-74
2022/07/19 04:01:06;;;;;;;15.02;3.53;;;;;;;18.77;66.20;101529.25;5046035;28;20436;-73
2022/07/19 04:03:39;;;;;;;11.55;3.38;;;;;;;18.77;66.49;101518.75;5045302;28;20791;-74
2022/07/19 04:06:09;;;;;;;7.85;3.25;;;;;;;18.80;65.78;101526.25;5063394;28;20738;-73
2022/07/19 04:08:35;;;;;;;7.15;3.20;;;;;;;18.80;65.66;101529.72;5064410;28;20028;-74
2022/07/19 04:11:01;;;;;;;8.52;2.88;;;;;;;18.81;65.61;101533.13;5063621;28;20043;-75
2022/07/19 04:13:27;;;;;;;7.90;2.72;;;;;;;18.80;66.50;101537.59;5046497;28;20997;-73
2022/07/19 04:15:52;;;;;;;8.45;3.78;;;;;;;18.81;66.96;101535.75;5046862;28;20115;-74
2022/07/19 04:18:18;;;;;;;4.25;2.80;;;;;;;18.83;66.68;101537.19;5063090;28;20111;-74
2022/07/19 04:20:43;;;;;;;8.18;3.10;;;;;;;18.86;65.91;101528.94;5063312;28;20036;-74
2022/07/19 04:23:09;;;;;;;9.75;3.30;;;;;;;18.84;66.35;101528.31;5039312;28;20119;-73
2022/07/19 04:25:34;;;;;;;5.95;2.60;;;;;;;18.86;65.14;101530.75;5061821;28;20042;-73
2022/07/19 04:28:01;;;;;;;8.57;3.00;;;;;;;18.86;65.11;101528.94;5031620;28;20036;-73
2022/07/19 04:30:27;;;;;;;6.70;3.05;;;;;;;18.92;64.24;101526.53;5044159;28;20039;-74
2022/07/19 04:32:53;;;;;;;5.95;2.65;;;;;;;18.92;64.46;101532.59;5042263;28;20388;-73
2022/07/19 04:35:18;;;;;;;8.93;3.63;;;;;;;18.94;64.84;101529.78;5060004;28;20059;-73
2022/07/19 04:37:44;;;;;;;5.28;2.60;;;;;;;18.97;64.66;101532.84;5047420;28;20071;-74
2022/07/19 04:40:09;;;;;;;4.70;2.25;;;;;;;19.01;64.56;101535.91;5059657;28;20040;-73
2022/07/19 04:42:35;;;;;;;10.07;3.40;;;;;;;19.06;64.54;101533.47;5043544;28;20033;-73
2022/07/19 04:45:01;;;;;;;6.63;2.80;;;;;;;19.05;63.68;101534.50;5062652;28;20021;-74
2022/07/19 04:47:26;;;;;;;4.93;2.38;;;;;;;19.09;64.05;101532.28;5043334;28;20130;-74
2022/07/19 04:49:52;;;;;;;7.20;2.95;;;;;;;19.25;63.21;101530.16;5039966;28;20346;-73
2022/07/19 04:52:17;;;;;;;9.57;3.38;;;;;;;19.24;62.98;101528.50;5040357;28;20070;-74
2022/07/19 04:54:43;;;;;;;7.57;3.13;;;;;;;19.26;62.83;101528.31;5062159;28;20033;-73
2022/07/19 04:57:08;;;;;;;13.38;3.42;;;;;;;19.37;61.97;101530.38;5042738;28;20101;-74
2022/07/19 04:59:34;;;;;;;5.80;2.50;;;;;;;19.37;62.14;101525.13;5063371;28;20489;-74
2022/07/19 05:01:59;;;;;;;5.88;2.88;;;;;;;19.45;61.97;101527.56;5061391;28;20040;-74
2022/07/19 05:04:24;;;;;;;6.90;3.33;;;;;;;19.51;61.89;101535.69;5062628;28;20035;-74
2022/07/19 05:06:56;;;;;;;4.55;2.63;;;;;;;19.56;61.70;101526.19;5060143;28;20055;-73
2022/07/19 05:09:25;;;;;;;4.05;2.75;;;;;;;19.56;61.78;101531.47;5062492;28;20033;-74
2022/07/19 05:11:52;;;;;;;6.82;2.47;;;;;;;19.71;60.83;101526.03;5039621;28;20532;-75
2022/07/19 05:14:18;;;;;;;8.18;3.00;;;;;;;19.78;60.81;101531.38;5058013;28;20099;-74
2022/07/19 05:16:43;;;;;;;4.78;2.60;;;;;;;19.92;59.85;101526.94;5061715;28;20123;-74
2022/07/19 05:19:09;;;;;;;5.95;2.70;;;;;;;19.97;59.88;101529.78;5064371;28;20047;-73
2022/07/19 05:21:34;;;;;;;6.60;2.58;;;;;;;20.04;59.65;101533.19;5055993;28;20033;-74
2022/07/19 05:24:00;;;;;;;7.53;2.65;;;;;;;20.15;59.53;101531.81;5062374;28;20110;-74
2022/07/19 05:26:25;;;;;;;7.10;2.60;;;;;;;20.21;59.63;101529.19;5041298;28;20059;-73
2022/07/19 05:28:51;;;;;;;7.13;2.53;;;;;;;20.45;58.48;101526.13;5046008;28;20646;-73
2022/07/19 05:31:16;;;;;;;3.22;2.00;;;;;;;20.52;58.27;101527.75;5040856;28;20520;-74
2022/07/19 05:33:42;;;;;;;11.32;2.47;;;;;;;20.61;57.95;101529.19;5059806;28;20036;-75
2022/07/19 05:36:10;;;;;;;5.82;2.75;;;;;;;20.78;57.79;101529.56;5058051;28;20044;-73
2022/07/19 05:38:38;;;;;;;6.45;2.22;;;;;;;20.82;58.05;101526.53;5042325;28;20089;-75
2022/07/19 05:41:04;;;;;;;3.03;2.05;;;;;;;20.97;56.87;101525.25;5056162;28;20040;-75
2022/07/19 05:43:30;;;;;;;9.43;3.35;;;;;;;21.09;57.08;101525.41;5058288;28;20465;-75
2022/07/19 05:45:55;;;;;;;8.05;2.90;;;;;;;21.23;55.85;101528.00;5042516;28;20040;-73
2022/07/19 05:48:21;;;;;;;5.85;2.47;;;;;;;21.37;55.31;101516.38;5038504;28;20102;-74
2022/07/19 05:50:46;;;;;;;7.68;2.15;;;;;;;21.53;54.73;101518.56;5040438;28;20039;-74
2022/07/19 05:53:11;;;;;;;5.82;2.42;;;;;;;21.81;53.86;101522.63;5056903;28;20028;-74
2022/07/19 05:55:38;;;;;;;5.05;2.47;;;;;;;21.99;53.30;101518.47;5024048;28;20021;-73
2022/07/19 05:58:03;;;;;;;5.90;2.42;;;;;;;22.22;51.82;101521.31;5061922;28;20031;-74
2022/07/19 06:00:29;;;;;;;6.90;2.45;;;;;;;22.46;51.48;101516.28;5060816;28;20032;-76
2022/07/19 06:02:54;;;;;;;6.78;2.92;;;;;;;22.65;50.27;101517.91;5043597;28;20580;-73
2022/07/19 06:05:19;;;;;;;6.20;2.47;;;;;;;22.88;50.25;101524.38;5061478;28;20101;-73
2022/07/19 06:07:45;;;;;;;6.03;2.33;;;;;;;23.01;49.56;101526.88;5046748;28;20059;-76
2022/07/19 06:10:10;;;;;;;6.35;2.60;;;;;;;23.15;48.99;101524.94;5063395;28;20021;-75
2022/07/19 06:12:36;;;;;;;6.68;2.33;;;;;;;23.35;48.87;101526.50;5063868;28;20039;-74
2022/07/19 06:15:02;;;;;;;9.20;3.15;;;;;;;23.62;47.77;101525.13;5062904;28;20036;-76
2022/07/19 06:17:27;;;;;;;9.02;2.42;;;;;;;23.85;47.35;101523.59;5061474;28;20032;-74
2022/07/19 06:19:53;;;;;;;5.68;2.40;;;;;;;24.08;47.59;101526.28;5061797;28;20035;-76
2022/07/19 06:22:18;;;;;;;4.30;2.38;;;;;;;24.32;46.92;101531.59;5030262;28;20101;-74
2022/07/19 06:24:44;;;;;;;6.57;2.58;;;;;;;24.57;45.97;101528.72;5061348;28;20024;-74
2022/07/19 06:27:09;;;;;;;8.38;2.55;;;;;;;24.73;45.31;101527.19;5064011;28;20045;-74
2022/07/19 06:29:34;;;;;;;10.88;2.95;;;;;;;24.88;45.34;101526.72;5065255;28;20037;-77
2022/07/19 06:32:00;;;;;;;12.40;2.63;;;;;;;25.00;44.48;101524.84;5045491;28;20056;-74
2022/07/19 06:34:25;;;;;;;5.85;2.30;;;;;;;25.19;45.35;101522.03;5047378;28;20024;-74
2022/07/19 06:36:51;;;;;;;8.70;2.45;;;;;;;25.34;44.51;101525.00;5051417;28;20028;-75
2022/07/19 06:39:16;;;;;;;6.90;2.50;;;;;;;25.72;43.37;101520.09;5043188;28;20039;-74
2022/07/19 06:41:42;;;;;;;10.73;5.00;;;;;;;25.80;42.85;101531.09;5063252;28;20036;-75
2022/07/19 06:44:16;;;;;;;7.15;2.30;;;;;;;26.14;42.66;101522.38;5062246;28;20083;-75
2022/07/19 06:46:42;;;;;;;8.25;2.35;;;;;;;26.25;42.63;101526.00;5050826;28;20040;-74
2022/07/19 06:49:07;;;;;;;7.00;2.10;;;;;;;26.48;42.39;101522.31;5031309;28;20078;-75
2022/07/19 06:51:33;;;;;;;4.05;2.25;;;;;;;26.67;41.56;101520.19;5068218;28;20036;-77
2022/07/19 06:53:58;;;;;;;5.55;2.92;;;;;;;26.95;41.13;101521.88;5043423;28;20045;-73
2022/07/19 06:56:24;;;;;;;8.20;2.05;;;;;;;27.03;40.45;101521.47;5065560;28;20036;-74
2022/07/19 06:58:49;;;;;;;7.80;2.92;;;;;;;27.06;40.06;101522.81;5052150;28;20040;-75
2022/07/19 07:01:15;;;;;;;6.85;3.13;;;;;;;27.31;39.93;101523.13;5041658;28;20044;-75
2022/07/19 07:03:40;;;;;;;9.60;2.40;;;;;;;27.56;39.37;101519.09;5047063;28;20029;-75
2022/07/19 07:06:06;;;;;;;7.10;2.90;;;;;;;27.70;39.01;101527.47;5057386;28;20767;-76
2022/07/19 07:08:31;;;;;;;14.18;2.10;;;;;;;28.20;39.37;101517.44;5065958;28;20111;-76
2022/07/19 07:10:57;;;;;;;14.60;2.97;;;;;;;28.67;38.26;101516.66;5063185;28;20035;-75
2022/07/19 07:13:22;;;;;;;6.93;2.17;;;;;;;28.97;37.80;101513.31;5066667;28;20354;-74
2022/07/19 07:15:48;;;;;;;5.47;2.58;;;;;;;28.84;36.98;101511.94;5046940;28;20397;-76
2022/07/19 07:18:14;;;;;;;15.18;2.40;;;;;;;28.99;36.89;101516.53;5064794;28;20017;-77
2022/07/19 07:20:40;;;;;;;6.55;2.17;;;;;;;29.18;36.70;101514.22;5044791;28;20044;-76
2022/07/19 07:23:05;;;;;;;6.18;2.30;;;;;;;29.61;36.83;101517.47;5045690;28;20638;-75
2022/07/19 07:25:31;;;;;;;5.55;2.13;;;;;;;29.93;36.21;101516.38;5049348;28;20614;-75
2022/07/19 07:27:56;;;;;;;6.95;2.30;;;;;;;29.97;35.97;101520.16;5059958;28;20036;-74
2022/07/19 07:30:22;;;;;;;10.88;2.30;;;;;;;30.32;35.81;101510.47;5060937;28;20029;-77
2022/07/19 07:32:47;;;;;;;9.18;2.67;;;;;;;30.70;34.72;101510.06;5048274;28;20994;-78
2022/07/19 07:35:13;;;;;;;3.65;2.50;;;;;;;30.54;34.27;101507.44;5058580;28;20106;-76
2022/07/19 07:37:38;;;;;;;9.40;2.40;;;;;;;30.83;34.79;101504.91;5065031;28;20044;-76
2022/07/19 07:40:04;;;;;;;7.82;2.50;;;;;;;30.70;34.71;101510.84;5044814;28;20021;-75
2022/07/19 07:42:32;;;;;;;12.88;3.10;;;;;;;31.05;33.83;101506.44;5045653;28;20326;-75
2022/07/19 07:44:59;;;;;;;8.77;2.42;;;;;;;31.05;33.16;101511.78;5056402;28;20033;-75
2022/07/19 07:47:25;;;;;;;7.43;2.38;;;;;;;30.93;33.01;101511.31;5042478;28;20099;-75
2022/07/19 07:49:51;;;;;;;5.28;2.03;;;;;;;31.13;33.74;101508.50;5060023;28;20031;-77
2022/07/19 07:52:16;;;;;;;6.82;2.50;;;;;;;31.39;33.32;101506.47;5030004;28;20040;-76
2022/07/19 07:54:42;;;;;;;4.18;2.20;;;;;;;31.56;32.63;101500.72;5042438;28;20037;-77
2022/07/19 07:57:08;;;;;;;3.70;2.00;;;;;;;31.25;32.66;101508.19;5041586;28;20035;-79
2022/07/19 07:59:34;;;;;;;7.00;2.30;;;;;;;31.16;32.96;101505.28;5043677;28;20029;-75
2022/07/19 08:01:59;;;;;;;7.03;2.60;;;;;;;31.50;33.12;101498.38;5062879;28;20040;-77
2022/07/19 08:04:26;;;;;;;9.00;2.20;;;;;;;31.68;32.40;101502.22;5044594;28;20036;-75
2022/07/19 08:06:51;;;;;;;5.20;2.08;;;;;;;32.31;32.08;101498.69;5060858;28;20028;-77
2022/07/19 08:09:17;;;;;;;6.20;2.05;;;;;;;32.74;31.68;101493.34;5030453;28;20877;-73
2022/07/19 08:11:42;;;;;;;3.67;1.95;;;;;;;32.65;30.97;101492.41;5051146;28;20055;-73
2022/07/19 08:14:08;;;;;;;8.20;2.00;;;;;;;32.67;31.08;101490.22;5045676;28;20044;-76
2022/07/19 08:16:33;;;;;;;6.40;2.40;;;;;;;32.94;30.83;101492.25;5025198;28;20047;-75
2022/07/19 08:18:59;;;;;;;8.38;2.33;;;;;;;33.23;30.83;101491.31;5065289;28;20081;-74
2022/07/19 08:21:24;;;;;;;9.02;2.97;;;;;;;33.35;29.78;101488.97;5064260;28;20497;-72
2022/07/19 08:23:51;;;;;;;4.88;2.30;;;;;;;33.57;30.59;101480.28;5060224;28;20033;-75
2022/07/19 08:26:16;;;;;;;12.25;2.30;;;;;;;33.75;28.90;101484.03;5043577;28;20032;-73
2022/07/19 08:28:42;;;;;;;7.50;2.65;;;;;;;33.85;28.40;101485.72;5042315;28;20028;-76
2022/07/19 08:31:08;;;;;;;7.53;2.92;;;;;;;33.96;28.14;101475.56;5039882;28;20740;-74
2022/07/19 08:33:33;;;;;;;6.68;2.10;;;;;;;34.00;27.93;101476.56;5061820;28;20024;-74
2022/07/19 08:35:59;;;;;;;10.38;2.20;;;;;;;34.54;28.31;101472.28;5061169;28;20039;-74
2022/07/19 08:38:24;;;;;;;7.50;1.92;;;;;;;34.54;28.11;101472.28;5066356;28;20032;-74
2022/07/19 08:40:53;;;;;;;7.15;1.92;;;;;;;34.81;28.14;101470.63;5059250;28;20058;-73
2022/07/19 08:43:20;;;;;;;16.92;2.60;;;;;;;34.88;26.99;101471.78;5062972;28;20033;-74
2022/07/19 08:45:47;;;;;;;12.80;2.78;;;;;;;35.12;28.04;101470.72;5027414;28;20032;-73
2022/07/19 08:48:12;;;;;;;6.15;1.67;;;;;;;35.51;27.53;101469.25;5040498;28;20029;-74
2022/07/19 08:50:40;;;;;;;7.57;1.95;;;;;;;35.66;26.28;101463.44;5029693;28;20052;-73
2022/07/19 08:53:05;;;;;;;9.13;2.17;;;;;;;35.70;26.16;101462.84;5062182;28;20108;-73
2022/07/19 08:55:31;;;;;;;6.65;2.20;;;;;;;35.78;25.43;101454.00;5024606;28;20041;-74
2022/07/19 08:58:02;;;;;;;4.90;1.90;;;;;;;35.74;26.40;101461.91;5060356;28;20040;-73
2022/07/19 09:00:33;;;;;;;9.00;2.40;;;;;;;35.77;26.22;101461.31;5047890;28;20501;-76
2022/07/19 09:03:01;;;;;;;11.07;2.03;;;;;;;36.21;26.20;101464.94;5042001;28;20036;-74
2022/07/19 09:05:27;;;;;;;5.72;1.80;;;;;;;36.12;26.46;101461.41;5063100;28;20127;-75
2022/07/19 09:08:10;;;;;;;5.60;1.95;;;;;;;36.31;24.65;101454.97;5044256;28;20032;-76
2022/07/19 09:10:42;;;;;;;5.57;2.47;;;;;;;35.89;25.43;101458.00;5062134;28;20043;-76
2022/07/19 09:13:15;;;;;;;6.60;2.25;;;;;;;36.16;25.98;101454.25;5064502;28;20691;-75
2022/07/19 09:15:44;;;;;;;7.43;1.85;;;;;;;36.49;25.61;101447.66;5045850;28;20040;-74
2022/07/19 09:18:13;;;;;;;7.60;2.22;;;;;;;36.75;25.70;101450.41;5026335;28;20045;-76
2022/07/19 09:20:39;;;;;;;5.15;1.95;;;;;;;36.68;24.43;101450.91;5038246;28;20051;-74
2022/07/19 09:23:05;;;;;;;3.65;1.73;;;;;;;36.86;23.85;101453.56;5041266;28;20037;-74
2022/07/19 09:26:00;;;;;;;14.90;2.33;;;;;;;36.81;24.80;101447.22;5033304;28;20035;-74
2022/07/19 09:28:29;;;;;;;8.60;2.38;;;;;;;36.82;23.84;101450.72;5043105;28;20053;-74
2022/07/19 09:30:57;;;;;;;8.90;2.25;;;;;;;36.80;24.78;101447.53;5041595;28;20470;-74
2022/07/19 09:33:31;;;;;;;10.15;2.20;;;;;;;36.98;24.72;101438.31;5045984;28;20094;-74
2022/07/19 09:36:03;;;;;;;8.63;1.98;;;;;;;36.96;24.00;101437.84;5064010;28;20036;-74
2022/07/19 09:38:33;;;;;;;7.35;2.22;;;;;;;37.16;23.29;101432.91;5069790;28;20067;-76
2022/07/19 09:41:12;;;;;;;7.15;2.17;;;;;;;37.28;23.71;101433.03;5062350;28;20040;-73
2022/07/19 09:43:58;;;;;;;8.38;2.67;;;;;;;37.34;23.92;101433.66;5046112;28;20085;-73
2022/07/19 09:46:33;;;;;;;15.15;2.25;;;;;;;37.36;23.72;101426.78;5048216;28;20139;-73
2022/07/19 09:49:07;;;;;;;5.28;1.60;;;;;;;37.54;23.88;101424.84;5069158;28;20047;-78
2022/07/19 09:51:40;;;;;;;8.48;2.10;;;;;;;37.45;22.82;101423.25;5034412;28;20074;-74
2022/07/19 09:54:08;;;;;;;11.32;2.53;;;;;;;37.66;23.25;101429.56;5065080;28;20040;-74
2022/07/19 09:56:36;;;;;;;9.75;2.40;;;;;;;37.70;22.29;101427.00;5066596;28;20039;-74
2022/07/19 09:59:02;;;;;;;7.03;2.10;;;;;;;37.94;21.77;101426.41;5045182;28;20035;-72
2022/07/19 10:01:29;;;;;;;9.23;2.05;;;;;;;37.92;21.67;101415.91;5070639;28;20032;-74
2022/07/19 10:03:58;;;;;;;6.15;2.67;;;;;;;37.52;21.95;101420.84;5065253;28;20043;-74
2022/07/19 10:06:25;;;;;;;12.57;2.35;;;;;;;37.57;23.17;101413.34;5064961;28;20503;-73
2022/07/19 10:08:51;;;;;;;7.88;2.15;;;;;;;37.77;22.39;101413.78;5048912;28;20024;-73
2022/07/19 10:11:17;;;;;;;9.18;2.20;;;;;;;37.83;23.61;101415.16;5062629;28;20465;-73
2022/07/19 10:13:43;;;;;;;9.73;2.28;;;;;;;37.86;22.30;101413.72;5042718;28;20047;-74
2022/07/19 10:16:15;;;;;;;10.07;2.22;;;;;;;37.76;21.70;101409.47;5067951;28;20521;-76
2022/07/19 10:18:54;;;;;;;11.43;3.22;;;;;;;38.02;21.87;101401.19;5043244;28;20081;-75
2022/07/19 10:21:20;;;;;;;6.43;1.73;;;;;;;38.11;20.68;101407.38;5062648;28;20140;-73
2022/07/19 10:23:52;;;;;;;7.72;2.13;;;;;;;38.08;21.01;101399.91;5061553;28;20021;-73
2022/07/19 10:26:38;;;;;;;4.65;2.00;;;;;;;38.37;20.98;101392.84;5057386;28;20082;-79
2022/07/19 10:29:17;;;;;;;6.15;2.47;;;;;;;38.23;20.57;101386.91;5044035;28;20025;-74
2022/07/19 10:32:01;;;;;;;12.27;2.20;;;;;;;38.23;20.30;101393.13;5060893;28;20052;-73
2022/07/19 10:34:26;;;;;;;10.10;3.03;;;;;;;38.41;21.38;101390.25;5056068;28;20037;-73
2022/07/19 10:36:52;;;;;;;8.80;2.05;;;;;;;38.47;20.67;101389.75;5024050;28;20032;-75
2022/07/19 10:39:17;;;;;;;8.65;2.90;;;;;;;38.53;21.20;101385.69;5039538;28;20037;-76
2022/07/19 10:42:18;;;;;;;5.55;2.00;;;;;;;38.75;20.17;101387.28;5044638;28;20132;-73
2022/07/19 10:44:56;;;;;;;8.10;2.08;;;;;;;38.25;18.71;101380.03;5054646;28;20043;-76
2022/07/19 10:47:22;;;;;;;14.88;3.15;;;;;;;38.29;18.97;101377.47;5056233;28;20043;-74
2022/07/19 10:49:48;;;;;;;6.80;2.60;;;;;;;38.12;19.48;101376.47;5055439;28;20021;-76
2022/07/19 10:52:29;;;;;;;18.00;2.10;;;;;;;38.20;19.12;101366.69;5065613;28;20029;-75
2022/07/19 10:55:16;;;;;;;7.25;2.40;;;;;;;38.20;19.17;101357.78;5061795;28;20051;-79
2022/07/19 10:57:43;;;;;;;4.53;1.90;;;;;;;38.32;18.50;101361.34;5058280;28;20031;-76
2022/07/19 11:00:25;;;;;;;5.70;2.63;;;;;;;38.38;18.75;101356.53;5045293;28;20253;-75
2022/07/19 11:02:52;;;;;;;4.55;2.25;;;;;;;38.32;18.47;101364.06;5045855;28;20119;-73
2022/07/19 11:05:28;;;;;;;5.63;2.58;;;;;;;38.54;18.91;101351.31;5045493;28;20033;-78
2022/07/19 11:07:56;;;;;;;4.25;1.73;;;;;;;38.37;18.63;101352.22;5059992;28;20036;-75
2022/07/19 11:10:27;;;;;;;7.55;2.03;;;;;;;38.29;19.36;101339.56;5059603;28;20036;-75
2022/07/19 11:12:57;;;;;;;8.93;2.05;;;;;;;38.35;18.31;101349.06;5048251;28;20127;-73
2022/07/19 11:15:23;;;;;;;6.25;2.72;;;;;;;38.21;18.24;101346.66;5029276;28;20028;-76
2022/07/19 11:18:07;;;;;;;7.68;2.10;;;;;;;38.28;17.94;101332.59;5058204;28;20032;-75
2022/07/19 11:20:35;;;;;;;4.28;1.80;;;;;;;38.28;17.65;101332.59;5060912;28;20113;-75
2022/07/19 11:23:03;;;;;;;4.68;1.67;;;;;;;37.96;17.79;101332.19;5062950;28;20052;-76